Terminal Aerodrome Forecast
Issued by NWS

Home | Current Version | Previous Version | Text Only | Print | Product List | Glossary On
Versions: 1 2 3 4 5 6 7 8 9 10 11 12 13 14
000
FTUS43 KDLH 272300 RRA
TAFBRD
TAF
KBRD 272343Z 2800/2824 VRB04KT P6SM FEW200
     FM281000 30005KT P6SM SCT040 BKN070
     FM281500 34010KT P6SM VCSH BKN050
     FM281800 34012KT P6SM SCT050=

USA.gov is the U.S. government's official web portal to all federal, state and local government web resources and services.